sensor_id;sensor_type;location;lat;lon;timestamp;P1;durP1;ratioP1;P2;durP2;ratioP2
6985;SDS011;3533;51.246;6.850;2024-03-23T00:55:55;2.97;;;2.77;;
6985;SDS011;3533;51.246;6.850;2024-03-23T00:58:21;3.20;;;2.57;;
6985;SDS011;3533;51.246;6.850;2024-03-23T01:00:47;3.30;;;2.70;;
6985;SDS011;3533;51.246;6.850;2024-03-23T01:03:12;2.60;;;2.40;;
6985;SDS011;3533;51.246;6.850;2024-03-23T01:05:38;2.70;;;2.50;;
6985;SDS011;3533;51.246;6.850;2024-03-23T01:08:03;2.60;;;2.40;;
6985;SDS011;3533;51.246;6.850;2024-03-23T01:10:29;2.30;;;2.10;;
6985;SDS011;3533;51.246;6.850;2024-03-23T01:12:55;2.57;;;2.37;;
6985;SDS011;3533;51.246;6.850;2024-03-23T01:15:21;2.60;;;2.40;;
6985;SDS011;3533;51.246;6.850;2024-03-23T01:17:46;2.93;;;2.73;;
6985;SDS011;3533;51.246;6.850;2024-03-23T01:20:12;2.80;;;2.60;;
6985;SDS011;3533;51.246;6.850;2024-03-23T01:22:38;2.90;;;2.70;;
6985;SDS011;3533;51.246;6.850;2024-03-23T01:25:03;2.40;;;2.20;;
6985;SDS011;3533;51.246;6.850;2024-03-23T01:27:29;2.40;;;2.20;;
6985;SDS011;3533;51.246;6.850;2024-03-23T01:29:54;2.57;;;2.37;;
6985;SDS011;3533;51.246;6.850;2024-03-23T01:32:20;2.13;;;2.00;;
6985;SDS011;3533;51.246;6.850;2024-03-23T01:34:46;2.40;;;2.20;;
6985;SDS011;3533;51.246;6.850;2024-03-23T01:37:12;2.67;;;2.47;;
6985;SDS011;3533;51.246;6.850;2024-03-23T01:39:37;2.50;;;2.30;;
6985;SDS011;3533;51.246;6.850;2024-03-23T01:42:03;2.40;;;2.20;;
6985;SDS011;3533;51.246;6.850;2024-03-23T01:44:29;2.50;;;2.30;;
6985;SDS011;3533;51.246;6.850;2024-03-23T01:46:54;2.07;;;1.97;;
6985;SDS011;3533;51.246;6.850;2024-03-23T01:49:20;2.00;;;1.90;;
6985;SDS011;3533;51.246;6.850;2024-03-23T01:51:45;2.17;;;2.07;;
6985;SDS011;3533;51.246;6.850;2024-03-23T01:54:11;2.30;;;2.20;;
6985;SDS011;3533;51.246;6.850;2024-03-23T01:56:37;2.73;;;2.53;;
6985;SDS011;3533;51.246;6.850;2024-03-23T01:59:06;2.30;;;2.20;;
6985;SDS011;3533;51.246;6.850;2024-03-23T02:01:32;2.20;;;2.10;;
6985;SDS011;3533;51.246;6.850;2024-03-23T02:04:01;2.40;;;2.30;;
6985;SDS011;3533;51.246;6.850;2024-03-23T02:06:26;2.87;;;2.67;;
6985;SDS011;3533;51.246;6.850;2024-03-23T02:08:53;2.57;;;2.37;;
6985;SDS011;3533;51.246;6.850;2024-03-23T02:11:19;2.27;;;2.17;;
6985;SDS011;3533;51.246;6.850;2024-03-23T02:13:45;2.20;;;2.10;;
6985;SDS011;3533;51.246;6.850;2024-03-23T02:16:11;2.10;;;2.00;;
6985;SDS011;3533;51.246;6.850;2024-03-23T02:18:36;2.30;;;2.17;;
6985;SDS011;3533;51.246;6.850;2024-03-23T02:21:02;3.60;;;2.10;;
6985;SDS011;3533;51.246;6.850;2024-03-23T02:23:28;2.30;;;2.10;;
6985;SDS011;3533;51.246;6.850;2024-03-23T02:25:53;1.90;;;1.80;;
6985;SDS011;3533;51.246;6.850;2024-03-23T02:28:19;2.20;;;2.00;;
6985;SDS011;3533;51.246;6.850;2024-03-23T02:30:45;2.27;;;2.00;;
6985;SDS011;3533;51.246;6.850;2024-03-23T02:33:11;1.90;;;1.80;;
6985;SDS011;3533;51.246;6.850;2024-03-23T02:35:36;2.30;;;2.10;;
6985;SDS011;3533;51.246;6.850;2024-03-23T02:38:02;2.00;;;1.80;;
6985;SDS011;3533;51.246;6.850;2024-03-23T02:40:28;2.10;;;2.00;;
6985;SDS011;3533;51.246;6.850;2024-03-23T02:42:53;2.63;;;2.43;;
6985;SDS011;3533;51.246;6.850;2024-03-23T02:45:19;2.07;;;1.97;;
6985;SDS011;3533;51.246;6.850;2024-03-23T02:47:45;2.00;;;1.90;;
6985;SDS011;3533;51.246;6.850;2024-03-23T02:50:11;2.47;;;2.00;;
6985;SDS011;3533;51.246;6.850;2024-03-23T02:52:36;2.37;;;1.90;;
6985;SDS011;3533;51.246;6.850;2024-03-23T02:55:03;2.20;;;2.00;;
6985;SDS011;3533;51.246;6.850;2024-03-23T02:57:28;2.20;;;2.00;;
6985;SDS011;3533;51.246;6.850;2024-03-23T02:59:54;2.13;;;1.93;;
6985;SDS011;3533;51.246;6.850;2024-03-23T03:02:20;2.60;;;1.80;;
6985;SDS011;3533;51.246;6.850;2024-03-23T03:04:46;2.40;;;2.20;;
6985;SDS011;3533;51.246;6.850;2024-03-23T03:07:12;2.43;;;2.23;;
6985;SDS011;3533;51.246;6.850;2024-03-23T03:09:38;2.13;;;2.00;;
6985;SDS011;3533;51.246;6.850;2024-03-23T03:12:07;1.90;;;1.80;;
6985;SDS011;3533;51.246;6.850;2024-03-23T03:14:36;1.90;;;1.80;;
6985;SDS011;3533;51.246;6.850;2024-03-23T03:17:02;1.90;;;1.80;;
6985;SDS011;3533;51.246;6.850;2024-03-23T03:19:28;2.00;;;1.90;;
6985;SDS011;3533;51.246;6.850;2024-03-23T03:21:54;2.73;;;2.10;;
6985;SDS011;3533;51.246;6.850;2024-03-23T03:24:20;2.10;;;2.00;;
6985;SDS011;3533;51.246;6.850;2024-03-23T03:26:46;2.20;;;2.10;;
6985;SDS011;3533;51.246;6.850;2024-03-23T03:29:12;1.80;;;1.70;;
6985;SDS011;3533;51.246;6.850;2024-03-23T03:31:38;2.13;;;2.03;;
6985;SDS011;3533;51.246;6.850;2024-03-23T03:34:04;1.80;;;1.70;;
6985;SDS011;3533;51.246;6.850;2024-03-23T03:36:29;2.33;;;2.13;;
6985;SDS011;3533;51.246;6.850;2024-03-23T03:38:55;1.90;;;1.80;;
6985;SDS011;3533;51.246;6.850;2024-03-23T03:41:20;2.00;;;1.90;;
6985;SDS011;3533;51.246;6.850;2024-03-23T03:43:46;1.80;;;1.70;;
6985;SDS011;3533;51.246;6.850;2024-03-23T03:46:12;1.90;;;1.77;;
6985;SDS011;3533;51.246;6.850;2024-03-23T03:48:37;1.80;;;1.70;;
6985;SDS011;3533;51.246;6.850;2024-03-23T03:51:03;2.03;;;1.60;;
6985;SDS011;3533;51.246;6.850;2024-03-23T03:53:29;1.97;;;1.80;;
6985;SDS011;3533;51.246;6.850;2024-03-23T03:55:55;2.30;;;2.10;;
6985;SDS011;3533;51.246;6.850;2024-03-23T03:58:21;4.47;;;1.90;;
6985;SDS011;3533;51.246;6.850;2024-03-23T04:00:47;1.57;;;1.47;;
6985;SDS011;3533;51.246;6.850;2024-03-23T04:03:12;1.70;;;1.60;;
6985;SDS011;3533;51.246;6.850;2024-03-23T04:05:38;1.53;;;1.43;;
6985;SDS011;3533;51.246;6.850;2024-03-23T04:08:05;1.60;;;1.50;;
6985;SDS011;3533;51.246;6.850;2024-03-23T04:10:32;1.77;;;1.67;;
6985;SDS011;3533;51.246;6.850;2024-03-23T04:12:57;1.73;;;1.63;;
6985;SDS011;3533;51.246;6.850;2024-03-23T04:15:23;1.90;;;1.80;;
6985;SDS011;3533;51.246;6.850;2024-03-23T04:17:49;2.20;;;2.10;;
6985;SDS011;3533;51.246;6.850;2024-03-23T04:20:14;2.33;;;1.93;;
6985;SDS011;3533;51.246;6.850;2024-03-23T04:22:42;1.90;;;1.80;;
6985;SDS011;3533;51.246;6.850;2024-03-23T04:25:08;1.97;;;1.60;;
6985;SDS011;3533;51.246;6.850;2024-03-23T04:27:35;1.40;;;1.30;;
6985;SDS011;3533;51.246;6.850;2024-03-23T04:30:02;2.50;;;1.97;;
6985;SDS011;3533;51.246;6.850;2024-03-23T04:32:29;1.70;;;1.60;;
6985;SDS011;3533;51.246;6.850;2024-03-23T04:34:55;1.70;;;1.60;;
6985;SDS011;3533;51.246;6.850;2024-03-23T04:37:21;1.73;;;1.63;;
6985;SDS011;3533;51.246;6.850;2024-03-23T04:39:47;2.00;;;1.90;;
6985;SDS011;3533;51.246;6.850;2024-03-23T04:42:14;1.90;;;1.70;;
6985;SDS011;3533;51.246;6.850;2024-03-23T04:44:40;1.50;;;1.40;;
6985;SDS011;3533;51.246;6.850;2024-03-23T04:47:05;1.53;;;1.43;;
6985;SDS011;3533;51.246;6.850;2024-03-23T04:49:31;1.53;;;1.43;;
6985;SDS011;3533;51.246;6.850;2024-03-23T04:51:56;1.70;;;1.60;;
6985;SDS011;3533;51.246;6.850;2024-03-23T04:54:22;1.70;;;1.60;;
6985;SDS011;3533;51.246;6.850;2024-03-23T04:56:48;1.80;;;1.70;;
6985;SDS011;3533;51.246;6.850;2024-03-23T04:59:13;1.90;;;1.80;;
6985;SDS011;3533;51.246;6.850;2024-03-23T05:01:39;1.67;;;1.30;;
6985;SDS011;3533;51.246;6.850;2024-03-23T05:04:06;1.57;;;1.47;;
6985;SDS011;3533;51.246;6.850;2024-03-23T05:06:32;1.60;;;1.50;;
6985;SDS011;3533;51.246;6.850;2024-03-23T05:08:59;3.43;;;1.60;;
6985;SDS011;3533;51.246;6.850;2024-03-23T05:11:25;2.10;;;1.70;;
6985;SDS011;3533;51.246;6.850;2024-03-23T05:13:50;2.07;;;1.80;;
6985;SDS011;3533;51.246;6.850;2024-03-23T05:16:16;1.93;;;1.83;;
6985;SDS011;3533;51.246;6.850;2024-03-23T05:18:41;1.70;;;1.60;;
6985;SDS011;3533;51.246;6.850;2024-03-23T05:21:07;1.60;;;1.50;;
6985;SDS011;3533;51.246;6.850;2024-03-23T05:23:32;1.70;;;1.60;;
6985;SDS011;3533;51.246;6.850;2024-03-23T05:25:58;2.07;;;1.60;;
6985;SDS011;3533;51.246;6.850;2024-03-23T05:28:24;1.57;;;1.47;;
6985;SDS011;3533;51.246;6.850;2024-03-23T05:30:50;1.80;;;1.70;;
6985;SDS011;3533;51.246;6.850;2024-03-23T05:33:17;1.60;;;1.50;;
6985;SDS011;3533;51.246;6.850;2024-03-23T05:35:44;1.70;;;1.60;;
6985;SDS011;3533;51.246;6.850;2024-03-23T05:38:09;1.50;;;1.40;;
6985;SDS011;3533;51.246;6.850;2024-03-23T05:40:35;1.80;;;1.70;;
6985;SDS011;3533;51.246;6.850;2024-03-23T05:43:02;1.60;;;1.50;;
6985;SDS011;3533;51.246;6.850;2024-03-23T05:45:28;3.10;;;1.70;;
6985;SDS011;3533;51.246;6.850;2024-03-23T05:47:54;3.00;;;1.50;;
6985;SDS011;3533;51.246;6.850;2024-03-23T05:50:21;1.83;;;1.70;;
6985;SDS011;3533;51.246;6.850;2024-03-23T05:52:47;1.60;;;1.50;;
6985;SDS011;3533;51.246;6.850;2024-03-23T05:55:14;8.07;;;2.10;;
6985;SDS011;3533;51.246;6.850;2024-03-23T05:57:39;1.30;;;1.20;;
6985;SDS011;3533;51.246;6.850;2024-03-23T06:00:05;1.93;;;1.70;;
6985;SDS011;3533;51.246;6.850;2024-03-23T06:02:35;1.60;;;1.50;;
6985;SDS011;3533;51.246;6.850;2024-03-23T06:05:01;1.50;;;1.40;;
6985;SDS011;3533;51.246;6.850;2024-03-23T06:07:27;1.40;;;1.30;;
6985;SDS011;3533;51.246;6.850;2024-03-23T06:09:52;1.70;;;1.60;;
6985;SDS011;3533;51.246;6.850;2024-03-23T06:12:18;2.40;;;1.60;;
6985;SDS011;3533;51.246;6.850;2024-03-23T06:14:43;1.63;;;1.53;;
6985;SDS011;3533;51.246;6.850;2024-03-23T06:17:09;2.13;;;1.50;;
6985;SDS011;3533;51.246;6.850;2024-03-23T06:19:34;1.70;;;1.60;;
6985;SDS011;3533;51.246;6.850;2024-03-23T06:22:00;1.83;;;1.50;;
6985;SDS011;3533;51.246;6.850;2024-03-23T06:24:26;1.63;;;1.53;;
6985;SDS011;3533;51.246;6.850;2024-03-23T06:26:51;1.30;;;1.20;;
6985;SDS011;3533;51.246;6.850;2024-03-23T06:29:17;1.50;;;1.40;;
6985;SDS011;3533;51.246;6.850;2024-03-23T06:31:42;1.43;;;1.33;;
6985;SDS011;3533;51.246;6.850;2024-03-23T06:34:08;1.80;;;1.30;;
6985;SDS011;3533;51.246;6.850;2024-03-23T06:36:34;1.87;;;1.63;;
6985;SDS011;3533;51.246;6.850;2024-03-23T06:38:59;2.00;;;1.50;;
6985;SDS011;3533;51.246;6.850;2024-03-23T06:41:25;1.80;;;1.70;;
6985;SDS011;3533;51.246;6.850;2024-03-23T06:43:51;2.30;;;1.40;;
6985;SDS011;3533;51.246;6.850;2024-03-23T06:46:16;1.60;;;1.50;;
6985;SDS011;3533;51.246;6.850;2024-03-23T06:48:42;1.67;;;1.57;;
6985;SDS011;3533;51.246;6.850;2024-03-23T06:51:10;1.37;;;1.20;;
6985;SDS011;3533;51.246;6.850;2024-03-23T06:53:35;1.60;;;1.50;;
6985;SDS011;3533;51.246;6.850;2024-03-23T06:56:01;2.07;;;1.87;;
6985;SDS011;3533;51.246;6.850;2024-03-23T06:58:27;1.50;;;1.40;;
6985;SDS011;3533;51.246;6.850;2024-03-23T07:00:52;1.60;;;1.43;;
6985;SDS011;3533;51.246;6.850;2024-03-23T07:03:18;1.37;;;1.27;;
6985;SDS011;3533;51.246;6.850;2024-03-23T07:05:43;1.70;;;1.60;;
6985;SDS011;3533;51.246;6.850;2024-03-23T07:08:11;1.60;;;1.40;;
6985;SDS011;3533;51.246;6.850;2024-03-23T07:10:39;1.50;;;1.40;;
6985;SDS011;3533;51.246;6.850;2024-03-23T07:13:05;1.37;;;1.27;;
6985;SDS011;3533;51.246;6.850;2024-03-23T07:15:30;1.70;;;1.60;;
6985;SDS011;3533;51.246;6.850;2024-03-23T07:17:56;1.70;;;1.43;;
6985;SDS011;3533;51.246;6.850;2024-03-23T07:20:22;3.43;;;1.67;;
6985;SDS011;3533;51.246;6.850;2024-03-23T07:22:47;1.77;;;1.50;;
6985;SDS011;3533;51.246;6.850;2024-03-23T07:25:14;1.60;;;1.50;;
6985;SDS011;3533;51.246;6.850;2024-03-23T07:27:39;1.53;;;1.30;;
6985;SDS011;3533;51.246;6.850;2024-03-23T07:30:05;1.40;;;1.30;;
6985;SDS011;3533;51.246;6.850;2024-03-23T07:32:31;1.60;;;1.50;;
6985;SDS011;3533;51.246;6.850;2024-03-23T07:34:57;1.60;;;1.50;;
6985;SDS011;3533;51.246;6.850;2024-03-23T07:37:23;2.17;;;1.50;;
6985;SDS011;3533;51.246;6.850;2024-03-23T07:39:48;2.17;;;1.47;;
6985;SDS011;3533;51.246;6.850;2024-03-23T07:42:14;4.73;;;1.47;;
6985;SDS011;3533;51.246;6.850;2024-03-23T07:44:40;1.40;;;1.30;;
6985;SDS011;3533;51.246;6.850;2024-03-23T07:47:06;1.50;;;1.40;;
6985;SDS011;3533;51.246;6.850;2024-03-23T07:49:32;1.60;;;1.50;;
6985;SDS011;3533;51.246;6.850;2024-03-23T07:51:57;1.57;;;1.43;;
6985;SDS011;3533;51.246;6.850;2024-03-23T07:54:23;1.73;;;1.63;;
6985;SDS011;3533;51.246;6.850;2024-03-23T07:56:49;1.40;;;1.30;;
6985;SDS011;3533;51.246;6.850;2024-03-23T07:59:14;1.40;;;1.30;;
6985;SDS011;3533;51.246;6.850;2024-03-23T08:01:40;1.50;;;1.40;;
6985;SDS011;3533;51.246;6.850;2024-03-23T08:04:05;1.30;;;1.20;;
6985;SDS011;3533;51.246;6.850;2024-03-23T08:06:31;1.30;;;1.20;;
6985;SDS011;3533;51.246;6.850;2024-03-23T08:08:57;1.80;;;1.60;;
6985;SDS011;3533;51.246;6.850;2024-03-23T08:11:26;1.57;;;1.40;;
6985;SDS011;3533;51.246;6.850;2024-03-23T08:13:53;1.73;;;1.40;;
6985;SDS011;3533;51.246;6.850;2024-03-23T08:16:18;1.60;;;1.50;;
6985;SDS011;3533;51.246;6.850;2024-03-23T08:18:44;1.60;;;1.50;;
6985;SDS011;3533;51.246;6.850;2024-03-23T08:21:10;1.67;;;1.57;;
6985;SDS011;3533;51.246;6.850;2024-03-23T08:23:36;1.70;;;1.60;;
6985;SDS011;3533;51.246;6.850;2024-03-23T08:26:07;2.30;;;2.10;;
6985;SDS011;3533;51.246;6.850;2024-03-23T08:28:34;1.90;;;1.80;;
6985;SDS011;3533;51.246;6.850;2024-03-23T08:31:01;2.57;;;1.47;;
6985;SDS011;3533;51.246;6.850;2024-03-23T08:33:28;1.70;;;1.60;;
6985;SDS011;3533;51.246;6.850;2024-03-23T08:35:57;1.77;;;1.20;;
6985;SDS011;3533;51.246;6.850;2024-03-23T08:38:27;2.00;;;1.23;;
6985;SDS011;3533;51.246;6.850;2024-03-23T08:40:57;1.70;;;1.60;;
6985;SDS011;3533;51.246;6.850;2024-03-23T08:43:23;1.73;;;1.63;;
6985;SDS011;3533;51.246;6.850;2024-03-23T08:45:49;1.53;;;1.30;;
6985;SDS011;3533;51.246;6.850;2024-03-23T08:48:15;1.60;;;1.50;;
6985;SDS011;3533;51.246;6.850;2024-03-23T08:50:40;1.30;;;1.20;;
6985;SDS011;3533;51.246;6.850;2024-03-23T08:53:06;2.37;;;1.80;;
6985;SDS011;3533;51.246;6.850;2024-03-23T08:55:32;4.03;;;1.40;;
6985;SDS011;3533;51.246;6.850;2024-03-23T08:57:57;1.40;;;1.30;;
6985;SDS011;3533;51.246;6.850;2024-03-23T09:00:23;1.80;;;1.37;;
6985;SDS011;3533;51.246;6.850;2024-03-23T09:02:48;1.50;;;1.40;;
6985;SDS011;3533;51.246;6.850;2024-03-23T09:05:14;1.87;;;1.70;;
6985;SDS011;3533;51.246;6.850;2024-03-23T09:07:39;1.40;;;1.30;;
6985;SDS011;3533;51.246;6.850;2024-03-23T09:10:06;1.47;;;1.37;;
6985;SDS011;3533;51.246;6.850;2024-03-23T09:12:32;1.20;;;1.10;;
6985;SDS011;3533;51.246;6.850;2024-03-23T09:14:58;1.50;;;1.40;;
6985;SDS011;3533;51.246;6.850;2024-03-23T09:17:23;4.13;;;1.50;;
6985;SDS011;3533;51.246;6.850;2024-03-23T09:19:49;1.73;;;1.50;;
6985;SDS011;3533;51.246;6.850;2024-03-23T09:22:15;1.33;;;1.23;;
6985;SDS011;3533;51.246;6.850;2024-03-23T09:24:40;1.37;;;1.20;;
6985;SDS011;3533;51.246;6.850;2024-03-23T09:27:06;1.43;;;1.20;;
6985;SDS011;3533;51.246;6.850;2024-03-23T09:29:31;1.90;;;1.40;;
6985;SDS011;3533;51.246;6.850;2024-03-23T09:31:57;1.57;;;1.20;;
6985;SDS011;3533;51.246;6.850;2024-03-23T09:34:23;2.60;;;1.40;;
6985;SDS011;3533;51.246;6.850;2024-03-23T09:36:51;1.40;;;1.30;;
6985;SDS011;3533;51.246;6.850;2024-03-23T09:39:17;1.37;;;1.27;;
6985;SDS011;3533;51.246;6.850;2024-03-23T09:41:44;1.77;;;1.67;;
6985;SDS011;3533;51.246;6.850;2024-03-23T09:44:10;1.70;;;1.60;;
6985;SDS011;3533;51.246;6.850;2024-03-23T09:46:36;1.43;;;1.33;;
6985;SDS011;3533;51.246;6.850;2024-03-23T09:49:03;1.50;;;1.40;;
6985;SDS011;3533;51.246;6.850;2024-03-23T09:51:30;1.70;;;1.60;;
6985;SDS011;3533;51.246;6.850;2024-03-23T09:53:56;1.40;;;1.30;;
6985;SDS011;3533;51.246;6.850;2024-03-23T09:56:22;1.50;;;1.40;;
6985;SDS011;3533;51.246;6.850;2024-03-23T09:58:49;2.30;;;1.43;;
6985;SDS011;3533;51.246;6.850;2024-03-23T10:01:14;1.50;;;1.40;;
6985;SDS011;3533;51.246;6.850;2024-03-23T10:03:44;2.63;;;1.70;;
6985;SDS011;3533;51.246;6.850;2024-03-23T10:06:11;1.50;;;1.40;;
6985;SDS011;3533;51.246;6.850;2024-03-23T10:08:36;2.13;;;1.93;;
6985;SDS011;3533;51.246;6.850;2024-03-23T10:11:12;1.93;;;1.73;;
6985;SDS011;3533;51.246;6.850;2024-03-23T10:13:41;1.40;;;1.30;;
6985;SDS011;3533;51.246;6.850;2024-03-23T10:16:08;2.60;;;1.80;;
6985;SDS011;3533;51.246;6.850;2024-03-23T10:18:38;2.10;;;1.33;;
6985;SDS011;3533;51.246;6.850;2024-03-23T10:23:30;1.57;;;1.47;;
6985;SDS011;3533;51.246;6.850;2024-03-23T10:26:12;1.50;;;1.40;;
6985;SDS011;3533;51.246;6.850;2024-03-23T10:28:53;1.60;;;1.50;;
6985;SDS011;3533;51.246;6.850;2024-03-23T10:31:23;1.40;;;1.30;;
6985;SDS011;3533;51.246;6.850;2024-03-23T10:33:50;1.50;;;1.40;;
6985;SDS011;3533;51.246;6.850;2024-03-23T10:36:18;1.57;;;1.37;;
6985;SDS011;3533;51.246;6.850;2024-03-23T10:38:45;1.30;;;1.20;;
6985;SDS011;3533;51.246;6.850;2024-03-23T10:41:11;1.30;;;1.20;;
6985;SDS011;3533;51.246;6.850;2024-03-23T10:43:38;1.50;;;1.40;;
6985;SDS011;3533;51.246;6.850;2024-03-23T10:46:04;1.30;;;1.10;;
6985;SDS011;3533;51.246;6.850;2024-03-23T10:48:33;1.30;;;1.20;;
6985;SDS011;3533;51.246;6.850;2024-03-23T10:50:59;1.57;;;1.47;;
6985;SDS011;3533;51.246;6.850;2024-03-23T10:53:25;1.97;;;1.63;;
6985;SDS011;3533;51.246;6.850;2024-03-23T10:55:52;1.20;;;1.10;;
6985;SDS011;3533;51.246;6.850;2024-03-23T10:58:21;1.57;;;1.23;;
6985;SDS011;3533;51.246;6.850;2024-03-23T11:00:52;1.40;;;1.30;;
6985;SDS011;3533;51.246;6.850;2024-03-23T11:06:04;1.10;;;1.00;;
6985;SDS011;3533;51.246;6.850;2024-03-23T11:08:34;1.20;;;1.00;;
6985;SDS011;3533;51.246;6.850;2024-03-23T11:13:50;1.23;;;1.13;;
6985;SDS011;3533;51.246;6.850;2024-03-23T11:16:26;1.40;;;1.07;;
6985;SDS011;3533;51.246;6.850;2024-03-23T11:18:54;1.00;;;1.00;;
6985;SDS011;3533;51.246;6.850;2024-03-23T11:21:59;0.87;;;0.87;;
6985;SDS011;3533;51.246;6.850;2024-03-23T11:24:26;1.00;;;0.90;;
6985;SDS011;3533;51.246;6.850;2024-03-23T11:26:52;1.00;;;0.90;;
6985;SDS011;3533;51.246;6.850;2024-03-23T11:29:17;1.03;;;0.93;;
6985;SDS011;3533;51.246;6.850;2024-03-23T11:34:16;1.03;;;0.93;;
6985;SDS011;3533;51.246;6.850;2024-03-23T11:36:45;1.90;;;1.10;;
6985;SDS011;3533;51.246;6.850;2024-03-23T11:39:15;0.90;;;0.90;;
6985;SDS011;3533;51.246;6.850;2024-03-23T11:41:55;1.00;;;0.90;;
6985;SDS011;3533;51.246;6.850;2024-03-23T11:44:22;0.87;;;0.87;;
6985;SDS011;3533;51.246;6.850;2024-03-23T11:46:50;0.90;;;0.90;;
6985;SDS011;3533;51.246;6.850;2024-03-23T11:49:20;1.10;;;1.00;;
6985;SDS011;3533;51.246;6.850;2024-03-23T11:51:47;0.90;;;0.83;;
6985;SDS011;3533;51.246;6.850;2024-03-23T11:54:13;1.10;;;1.00;;
6985;SDS011;3533;51.246;6.850;2024-03-23T11:56:39;0.80;;;0.80;;
6985;SDS011;3533;51.246;6.850;2024-03-23T11:59:06;1.00;;;0.97;;
6985;SDS011;3533;51.246;6.850;2024-03-23T12:01:31;0.90;;;0.90;;
6985;SDS011;3533;51.246;6.850;2024-03-23T12:03:57;1.43;;;0.80;;
6985;SDS011;3533;51.246;6.850;2024-03-23T12:06:23;1.13;;;0.80;;
6985;SDS011;3533;51.246;6.850;2024-03-23T12:08:48;0.80;;;0.80;;
6985;SDS011;3533;51.246;6.850;2024-03-23T12:11:17;1.00;;;0.90;;
6985;SDS011;3533;51.246;6.850;2024-03-23T12:13:44;1.13;;;0.87;;
6985;SDS011;3533;51.246;6.850;2024-03-23T12:18:43;0.90;;;0.90;;
6985;SDS011;3533;51.246;6.850;2024-03-23T12:21:16;1.10;;;1.00;;
6985;SDS011;3533;51.246;6.850;2024-03-23T12:23:43;1.10;;;1.00;;
6985;SDS011;3533;51.246;6.850;2024-03-23T12:26:13;1.00;;;0.90;;
6985;SDS011;3533;51.246;6.850;2024-03-23T12:28:39;0.90;;;0.80;;
6985;SDS011;3533;51.246;6.850;2024-03-23T12:31:05;0.97;;;0.90;;
6985;SDS011;3533;51.246;6.850;2024-03-23T12:33:31;1.07;;;0.97;;
6985;SDS011;3533;51.246;6.850;2024-03-23T12:35:56;0.97;;;0.87;;
6985;SDS011;3533;51.246;6.850;2024-03-23T12:38:22;0.90;;;0.90;;
6985;SDS011;3533;51.246;6.850;2024-03-23T12:40:48;1.00;;;0.90;;
6985;SDS011;3533;51.246;6.850;2024-03-23T12:43:14;0.80;;;0.80;;
6985;SDS011;3533;51.246;6.850;2024-03-23T12:45:40;0.83;;;0.83;;
6985;SDS011;3533;51.246;6.850;2024-03-23T12:48:06;1.13;;;1.03;;
6985;SDS011;3533;51.246;6.850;2024-03-23T12:50:32;1.10;;;1.00;;
6985;SDS011;3533;51.246;6.850;2024-03-23T12:52:58;1.40;;;1.10;;
6985;SDS011;3533;51.246;6.850;2024-03-23T12:55:24;0.93;;;0.90;;
6985;SDS011;3533;51.246;6.850;2024-03-23T12:57:50;1.00;;;0.90;;
6985;SDS011;3533;51.246;6.850;2024-03-23T13:00:15;1.00;;;0.90;;
6985;SDS011;3533;51.246;6.850;2024-03-23T13:02:42;1.00;;;0.90;;
6985;SDS011;3533;51.246;6.850;2024-03-23T13:05:07;1.23;;;0.87;;
6985;SDS011;3533;51.246;6.850;2024-03-23T13:07:36;1.13;;;1.00;;
6985;SDS011;3533;51.246;6.850;2024-03-23T13:10:03;0.90;;;0.90;;
6985;SDS011;3533;51.246;6.850;2024-03-23T13:12:30;1.37;;;1.27;;
6985;SDS011;3533;51.246;6.850;2024-03-23T13:14:56;1.00;;;0.87;;
6985;SDS011;3533;51.246;6.850;2024-03-23T13:17:24;0.93;;;0.87;;
6985;SDS011;3533;51.246;6.850;2024-03-23T13:19:52;1.30;;;1.20;;
6985;SDS011;3533;51.246;6.850;2024-03-23T13:22:17;0.97;;;0.97;;
6985;SDS011;3533;51.246;6.850;2024-03-23T13:24:43;1.10;;;1.00;;
6985;SDS011;3533;51.246;6.850;2024-03-23T13:27:09;1.00;;;0.90;;
6985;SDS011;3533;51.246;6.850;2024-03-23T13:29:35;1.27;;;1.17;;
6985;SDS011;3533;51.246;6.850;2024-03-23T13:32:02;0.80;;;0.80;;
6985;SDS011;3533;51.246;6.850;2024-03-23T13:34:28;1.13;;;1.03;;
6985;SDS011;3533;51.246;6.850;2024-03-23T13:36:55;1.30;;;1.20;;
6985;SDS011;3533;51.246;6.850;2024-03-23T13:39:23;0.90;;;0.90;;
6985;SDS011;3533;51.246;6.850;2024-03-23T13:41:50;1.23;;;1.13;;
6985;SDS011;3533;51.246;6.850;2024-03-23T13:44:16;0.80;;;0.80;;
6985;SDS011;3533;51.246;6.850;2024-03-23T13:46:43;0.80;;;0.80;;
6985;SDS011;3533;51.246;6.850;2024-03-23T13:49:24;2.00;;;0.90;;
6985;SDS011;3533;51.246;6.850;2024-03-23T13:51:52;1.20;;;1.00;;
6985;SDS011;3533;51.246;6.850;2024-03-23T13:54:19;1.10;;;1.00;;
6985;SDS011;3533;51.246;6.850;2024-03-23T13:56:45;1.73;;;0.83;;
6985;SDS011;3533;51.246;6.850;2024-03-23T13:59:11;1.10;;;1.00;;
6985;SDS011;3533;51.246;6.850;2024-03-23T14:01:37;1.33;;;1.00;;
6985;SDS011;3533;51.246;6.850;2024-03-23T14:04:02;1.20;;;1.10;;
6985;SDS011;3533;51.246;6.850;2024-03-23T14:06:28;1.23;;;1.13;;
6985;SDS011;3533;51.246;6.850;2024-03-23T14:08:53;1.50;;;1.40;;
6985;SDS011;3533;51.246;6.850;2024-03-23T14:11:19;4.20;;;1.10;;
6985;SDS011;3533;51.246;6.850;2024-03-23T14:13:45;1.57;;;1.10;;
6985;SDS011;3533;51.246;6.850;2024-03-23T14:16:10;1.50;;;1.40;;
6985;SDS011;3533;51.246;6.850;2024-03-23T14:18:36;1.27;;;1.17;;
6985;SDS011;3533;51.246;6.850;2024-03-23T14:21:02;2.23;;;1.23;;
6985;SDS011;3533;51.246;6.850;2024-03-23T14:23:28;1.50;;;1.40;;
6985;SDS011;3533;51.246;6.850;2024-03-23T14:25:57;1.40;;;1.30;;
6985;SDS011;3533;51.246;6.850;2024-03-23T14:28:23;1.63;;;1.53;;
6985;SDS011;3533;51.246;6.850;2024-03-23T14:30:49;2.20;;;1.53;;
6985;SDS011;3533;51.246;6.850;2024-03-23T14:33:16;1.50;;;1.40;;
6985;SDS011;3533;51.246;6.850;2024-03-23T14:35:42;1.60;;;1.50;;
6985;SDS011;3533;51.246;6.850;2024-03-23T14:38:08;1.90;;;1.63;;
6985;SDS011;3533;51.246;6.850;2024-03-23T14:40:34;1.67;;;1.20;;
6985;SDS011;3533;51.246;6.850;2024-03-23T14:43:00;1.53;;;1.43;;
6985;SDS011;3533;51.246;6.850;2024-03-23T14:45:27;1.50;;;1.30;;
6985;SDS011;3533;51.246;6.850;2024-03-23T14:47:53;3.80;;;1.37;;
6985;SDS011;3533;51.246;6.850;2024-03-23T14:50:18;1.70;;;1.60;;
6985;SDS011;3533;51.246;6.850;2024-03-23T14:52:44;1.53;;;1.43;;
6985;SDS011;3533;51.246;6.850;2024-03-23T14:55:11;1.43;;;1.30;;
6985;SDS011;3533;51.246;6.850;2024-03-23T14:57:37;2.90;;;1.40;;
6985;SDS011;3533;51.246;6.850;2024-03-23T15:00:08;1.50;;;1.40;;
6985;SDS011;3533;51.246;6.850;2024-03-23T15:02:38;1.30;;;1.20;;
6985;SDS011;3533;51.246;6.850;2024-03-23T15:05:04;1.57;;;1.47;;
6985;SDS011;3533;51.246;6.850;2024-03-23T15:07:30;2.13;;;1.30;;
6985;SDS011;3533;51.246;6.850;2024-03-23T15:09:56;1.27;;;1.17;;
6985;SDS011;3533;51.246;6.850;2024-03-23T15:12:22;1.60;;;1.50;;
6985;SDS011;3533;51.246;6.850;2024-03-23T15:14:47;1.37;;;1.27;;
6985;SDS011;3533;51.246;6.850;2024-03-23T15:17:13;1.30;;;1.20;;
6985;SDS011;3533;51.246;6.850;2024-03-23T15:19:39;1.40;;;1.30;;
6985;SDS011;3533;51.246;6.850;2024-03-23T15:22:06;1.57;;;1.20;;
6985;SDS011;3533;51.246;6.850;2024-03-23T15:24:33;3.60;;;1.60;;
6985;SDS011;3533;51.246;6.850;2024-03-23T15:27:00;1.50;;;1.40;;
6985;SDS011;3533;51.246;6.850;2024-03-23T15:29:26;2.30;;;2.10;;
6985;SDS011;3533;51.246;6.850;2024-03-23T15:31:52;2.23;;;1.90;;
6985;SDS011;3533;51.246;6.850;2024-03-23T15:34:20;4.43;;;1.53;;
6985;SDS011;3533;51.246;6.850;2024-03-23T15:36:49;1.90;;;1.60;;
6985;SDS011;3533;51.246;6.850;2024-03-23T15:39:18;1.40;;;1.30;;
6985;SDS011;3533;51.246;6.850;2024-03-23T15:41:44;2.00;;;1.80;;
6985;SDS011;3533;51.246;6.850;2024-03-23T15:44:10;1.40;;;1.30;;
6985;SDS011;3533;51.246;6.850;2024-03-23T15:46:36;1.63;;;1.40;;
6985;SDS011;3533;51.246;6.850;2024-03-23T15:49:02;1.87;;;1.50;;
6985;SDS011;3533;51.246;6.850;2024-03-23T15:51:27;1.40;;;1.30;;
6985;SDS011;3533;51.246;6.850;2024-03-23T15:53:57;3.00;;;1.53;;
6985;SDS011;3533;51.246;6.850;2024-03-23T15:56:24;1.80;;;1.70;;
6985;SDS011;3533;51.246;6.850;2024-03-23T15:58:49;1.37;;;1.27;;
6985;SDS011;3533;51.246;6.850;2024-03-23T16:01:15;1.43;;;1.33;;
6985;SDS011;3533;51.246;6.850;2024-03-23T16:03:40;1.23;;;1.13;;
6985;SDS011;3533;51.246;6.850;2024-03-23T16:06:06;1.40;;;1.30;;
6985;SDS011;3533;51.246;6.850;2024-03-23T16:08:33;1.33;;;1.23;;
6985;SDS011;3533;51.246;6.850;2024-03-23T16:11:03;1.83;;;1.27;;
6985;SDS011;3533;51.246;6.850;2024-03-23T16:13:33;1.30;;;1.20;;
6985;SDS011;3533;51.246;6.850;2024-03-23T16:15:59;1.40;;;1.30;;
6985;SDS011;3533;51.246;6.850;2024-03-23T16:18:28;1.67;;;1.57;;